Aeroporto :
LOGIN :

Iscrizione | Disclaimer

   EN    FR    IT 

 










Sommario :    VFR   VFR Marginale   IFR   IFR Intensivo   IFR Molto Intensivo
Visibilità : 
Base nubi : 
>= 8 km
>= 3000ft
5 / 8 km
1000 / 3000 ft
1500m / 5 km
500 / 1000 ft
800 / 1500m
200 / 500 ft
< 800m
< 200 ft
Simboli :   Temporali  Nebbia  Neve Forte  Precipitazioni Forti  Vento > 20 kt
SIGMETs :   Varie  Temporali  Ghiacco  Turbolenza  Onda orograficha  Ceneri Vulcaniche






- Altitudine del aeroporto : 995 ft
- Codice IATA : KTW


EPKT - Katowice

ULTIMO METAR :
  • 240900Z 33007KT 280V030 9999 BKN023 09/03 Q1004

METARs OBSOLETI :
  • 240830Z 34008KT 320V020 9999 BKN020 08/03 Q1005
  • 240800Z 01008KT 330V040 9999 SCT020 BKN044 08/03 Q1005
  • 240730Z 35007KT 9999 BKN045 07/03 Q1005
  • 240700Z 34006KT 320V020 9999 BKN045 07/03 Q1005
  • 240630Z 35007KT 9999 BKN045 06/02 Q1005
  • 240600Z 36006KT 330V030 9999 BKN045 06/02 Q1005
  • 240530Z 01006KT 9999 BKN042 05/02 Q1006
  • 240500Z 35005KT 9999 BKN034 04/02 Q1006

TAF TAF EPKT
Valido dal 24 a 06 ore il 25 a 06 ore UTC


240530Z 2406/2506 35005KT 9999 BKN030
BECMG 2413/2416 3000 -RA BR OVC010
TEMPO 2416/2424 2500 RA BR BKN004 OVC006
BECMG 2503/2506 8000 BKN020



MetMap, La meteo Aeronautica in un colpo d'occhio ! - Copyright ORBIFLY Dicembre 2007 - Disclaimer

ORBIFLY MET'MAP TEAM :

Programmazione e sviluppo : Alexandra Zaïnal
Concezione : Baudouin d'Aumeries
Supporto tecnico e logistico : Manuel Goepfert
Aiuto : Marc-Olivier Méhu
Aiuto per la traduzione : Arnaldo La Scala




FONTI E CREDITI :

   NOAA